sensor_id;sensor_type;location;lat;lon;timestamp;P1;durP1;ratioP1;P2;durP2;ratioP2
37831;SDS011;23671;38.090;-122.570;2023-03-16T00:02:08;1.10;;;0.60;;
37831;SDS011;23671;38.090;-122.570;2023-03-16T00:04:36;1.00;;;0.40;;
37831;SDS011;23671;38.090;-122.570;2023-03-16T00:07:04;1.10;;;0.40;;
37831;SDS011;23671;38.090;-122.570;2023-03-16T00:09:33;0.90;;;0.50;;
37831;SDS011;23671;38.090;-122.570;2023-03-16T00:12:05;1.27;;;0.43;;
37831;SDS011;23671;38.090;-122.570;2023-03-16T00:14:46;2.17;;;0.50;;
37831;SDS011;23671;38.090;-122.570;2023-03-16T00:17:15;3.30;;;0.50;;
37831;SDS011;23671;38.090;-122.570;2023-03-16T00:19:50;0.88;;;0.65;;
37831;SDS011;23671;38.090;-122.570;2023-03-16T00:22:19;0.93;;;0.50;;
37831;SDS011;23671;38.090;-122.570;2023-03-16T00:24:48;2.55;;;0.65;;
37831;SDS011;23671;38.090;-122.570;2023-03-16T00:27:15;2.50;;;0.43;;
37831;SDS011;23671;38.090;-122.570;2023-03-16T00:29:43;2.40;;;0.50;;
37831;SDS011;23671;38.090;-122.570;2023-03-16T00:32:13;2.50;;;0.82;;
37831;SDS011;23671;38.090;-122.570;2023-03-16T00:34:44;1.13;;;0.50;;
37831;SDS011;23671;38.090;-122.570;2023-03-16T00:37:13;1.77;;;0.40;;
37831;SDS011;23671;38.090;-122.570;2023-03-16T00:39:42;1.80;;;0.75;;
37831;SDS011;23671;38.090;-122.570;2023-03-16T00:42:10;2.05;;;0.60;;
37831;SDS011;23671;38.090;-122.570;2023-03-16T00:44:39;2.42;;;0.80;;
37831;SDS011;23671;38.090;-122.570;2023-03-16T00:47:09;0.52;;;0.50;;
37831;SDS011;23671;38.090;-122.570;2023-03-16T00:49:43;1.20;;;0.60;;
37831;SDS011;23671;38.090;-122.570;2023-03-16T00:52:11;0.90;;;0.57;;
37831;SDS011;23671;38.090;-122.570;2023-03-16T00:54:39;2.05;;;0.70;;
37831;SDS011;23671;38.090;-122.570;2023-03-16T00:57:07;2.60;;;0.80;;
37831;SDS011;23671;38.090;-122.570;2023-03-16T00:59:36;2.25;;;0.70;;
37831;SDS011;23671;38.090;-122.570;2023-03-16T01:02:04;2.20;;;0.68;;
37831;SDS011;23671;38.090;-122.570;2023-03-16T01:04:32;2.00;;;0.60;;
37831;SDS011;23671;38.090;-122.570;2023-03-16T01:07:03;1.27;;;0.50;;
37831;SDS011;23671;38.090;-122.570;2023-03-16T01:09:31;1.10;;;0.57;;
37831;SDS011;23671;38.090;-122.570;2023-03-16T01:12:09;1.67;;;0.70;;
37831;SDS011;23671;38.090;-122.570;2023-03-16T01:14:41;1.83;;;0.70;;
37831;SDS011;23671;38.090;-122.570;2023-03-16T01:17:10;2.05;;;0.70;;
37831;SDS011;23671;38.090;-122.570;2023-03-16T01:19:38;3.15;;;0.77;;
37831;SDS011;23671;38.090;-122.570;2023-03-16T01:22:06;1.60;;;0.63;;
37831;SDS011;23671;38.090;-122.570;2023-03-16T01:24:34;3.25;;;0.70;;
37831;SDS011;23671;38.090;-122.570;2023-03-16T01:27:02;3.38;;;1.15;;
37831;SDS011;23671;38.090;-122.570;2023-03-16T01:29:30;2.97;;;0.90;;
37831;SDS011;23671;38.090;-122.570;2023-03-16T01:31:57;2.95;;;0.70;;
37831;SDS011;23671;38.090;-122.570;2023-03-16T01:34:25;2.20;;;0.60;;
37831;SDS011;23671;38.090;-122.570;2023-03-16T01:36:52;4.47;;;1.50;;
37831;SDS011;23671;38.090;-122.570;2023-03-16T01:39:20;2.30;;;0.95;;
37831;SDS011;23671;38.090;-122.570;2023-03-16T01:41:48;3.30;;;0.88;;
37831;SDS011;23671;38.090;-122.570;2023-03-16T01:44:17;1.60;;;0.60;;
37831;SDS011;23671;38.090;-122.570;2023-03-16T01:46:48;1.45;;;0.70;;
37831;SDS011;23671;38.090;-122.570;2023-03-16T01:49:29;0.98;;;0.50;;
37831;SDS011;23671;38.090;-122.570;2023-03-16T01:52:12;3.22;;;0.80;;
37831;SDS011;23671;38.090;-122.570;2023-03-16T01:59:44;2.35;;;0.65;;
37831;SDS011;23671;38.090;-122.570;2023-03-16T02:02:43;2.03;;;0.70;;
37831;SDS011;23671;38.090;-122.570;2023-03-16T02:05:28;3.05;;;0.77;;
37831;SDS011;23671;38.090;-122.570;2023-03-16T02:08:07;3.22;;;0.80;;
37831;SDS011;23671;38.090;-122.570;2023-03-16T02:10:36;2.30;;;0.68;;
37831;SDS011;23671;38.090;-122.570;2023-03-16T02:13:05;1.77;;;0.77;;
37831;SDS011;23671;38.090;-122.570;2023-03-16T02:15:32;2.75;;;0.70;;
37831;SDS011;23671;38.090;-122.570;2023-03-16T02:18:00;3.88;;;0.90;;
37831;SDS011;23671;38.090;-122.570;2023-03-16T02:23:09;2.78;;;0.80;;
37831;SDS011;23671;38.090;-122.570;2023-03-16T02:25:48;4.10;;;1.03;;
37831;SDS011;23671;38.090;-122.570;2023-03-16T02:28:31;4.18;;;0.70;;
37831;SDS011;23671;38.090;-122.570;2023-03-16T02:31:12;5.75;;;0.80;;
37831;SDS011;23671;38.090;-122.570;2023-03-16T02:33:43;5.70;;;0.90;;
37831;SDS011;23671;38.090;-122.570;2023-03-16T02:36:13;1.95;;;0.77;;
37831;SDS011;23671;38.090;-122.570;2023-03-16T02:38:40;4.35;;;0.93;;
37831;SDS011;23671;38.090;-122.570;2023-03-16T02:41:10;2.53;;;0.82;;
37831;SDS011;23671;38.090;-122.570;2023-03-16T02:43:46;1.35;;;0.80;;
37831;SDS011;23671;38.090;-122.570;2023-03-16T02:46:24;5.03;;;0.95;;
37831;SDS011;23671;38.090;-122.570;2023-03-16T02:51:30;1.80;;;0.85;;
37831;SDS011;23671;38.090;-122.570;2023-03-16T02:53:57;1.77;;;0.80;;
37831;SDS011;23671;38.090;-122.570;2023-03-16T02:56:24;4.50;;;1.10;;
37831;SDS011;23671;38.090;-122.570;2023-03-16T02:58:51;4.40;;;0.85;;
37831;SDS011;23671;38.090;-122.570;2023-03-16T03:01:19;5.15;;;1.10;;
37831;SDS011;23671;38.090;-122.570;2023-03-16T03:03:46;4.22;;;1.17;;
37831;SDS011;23671;38.090;-122.570;2023-03-16T03:06:13;5.63;;;1.33;;
37831;SDS011;23671;38.090;-122.570;2023-03-16T03:08:40;3.95;;;1.00;;
37831;SDS011;23671;38.090;-122.570;2023-03-16T03:11:07;4.00;;;1.00;;
37831;SDS011;23671;38.090;-122.570;2023-03-16T03:13:34;4.15;;;1.00;;
37831;SDS011;23671;38.090;-122.570;2023-03-16T03:16:04;2.80;;;1.08;;
37831;SDS011;23671;38.090;-122.570;2023-03-16T03:18:31;4.07;;;1.00;;
37831;SDS011;23671;38.090;-122.570;2023-03-16T03:20:59;3.75;;;1.05;;
37831;SDS011;23671;38.090;-122.570;2023-03-16T03:23:25;3.30;;;1.00;;
37831;SDS011;23671;38.090;-122.570;2023-03-16T03:25:55;4.53;;;1.65;;
37831;SDS011;23671;38.090;-122.570;2023-03-16T03:28:23;2.38;;;0.95;;
37831;SDS011;23671;38.090;-122.570;2023-03-16T03:30:50;7.78;;;1.40;;
37831;SDS011;23671;38.090;-122.570;2023-03-16T03:33:17;5.78;;;1.20;;
37831;SDS011;23671;38.090;-122.570;2023-03-16T03:35:47;6.68;;;1.85;;
37831;SDS011;23671;38.090;-122.570;2023-03-16T03:38:23;3.42;;;1.20;;
37831;SDS011;23671;38.090;-122.570;2023-03-16T03:40:51;3.75;;;1.40;;
37831;SDS011;23671;38.090;-122.570;2023-03-16T03:43:19;4.72;;;1.10;;
37831;SDS011;23671;38.090;-122.570;2023-03-16T03:45:46;5.13;;;1.45;;
37831;SDS011;23671;38.090;-122.570;2023-03-16T03:48:13;7.45;;;1.33;;
37831;SDS011;23671;38.090;-122.570;2023-03-16T03:50:40;3.83;;;1.13;;
37831;SDS011;23671;38.090;-122.570;2023-03-16T03:53:07;5.80;;;1.52;;
37831;SDS011;23671;38.090;-122.570;2023-03-16T03:55:34;5.10;;;1.10;;
37831;SDS011;23671;38.090;-122.570;2023-03-16T03:58:01;4.97;;;1.17;;
37831;SDS011;23671;38.090;-122.570;2023-03-16T04:00:28;5.32;;;1.20;;
37831;SDS011;23671;38.090;-122.570;2023-03-16T04:02:55;3.88;;;1.20;;
37831;SDS011;23671;38.090;-122.570;2023-03-16T04:05:22;4.70;;;1.17;;
37831;SDS011;23671;38.090;-122.570;2023-03-16T04:10:22;2.92;;;1.25;;
37831;SDS011;23671;38.090;-122.570;2023-03-16T04:12:50;4.43;;;1.08;;
37831;SDS011;23671;38.090;-122.570;2023-03-16T04:15:17;4.03;;;1.25;;
37831;SDS011;23671;38.090;-122.570;2023-03-16T04:17:44;5.97;;;1.80;;
37831;SDS011;23671;38.090;-122.570;2023-03-16T04:20:11;3.88;;;1.13;;
37831;SDS011;23671;38.090;-122.570;2023-03-16T04:22:40;3.30;;;1.00;;
37831;SDS011;23671;38.090;-122.570;2023-03-16T04:25:08;3.67;;;1.00;;
37831;SDS011;23671;38.090;-122.570;2023-03-16T04:27:36;3.40;;;1.00;;
37831;SDS011;23671;38.090;-122.570;2023-03-16T04:30:03;5.50;;;1.30;;
37831;SDS011;23671;38.090;-122.570;2023-03-16T04:32:35;4.30;;;1.20;;
37831;SDS011;23671;38.090;-122.570;2023-03-16T04:35:03;1.38;;;0.90;;
37831;SDS011;23671;38.090;-122.570;2023-03-16T04:37:30;3.17;;;1.20;;
37831;SDS011;23671;38.090;-122.570;2023-03-16T04:39:58;3.60;;;1.42;;
37831;SDS011;23671;38.090;-122.570;2023-03-16T04:42:33;6.35;;;1.50;;
37831;SDS011;23671;38.090;-122.570;2023-03-16T04:45:01;3.13;;;1.20;;
37831;SDS011;23671;38.090;-122.570;2023-03-16T04:47:28;2.85;;;0.85;;
37831;SDS011;23671;38.090;-122.570;2023-03-16T04:49:58;1.65;;;1.00;;
37831;SDS011;23671;38.090;-122.570;2023-03-16T04:52:27;2.40;;;1.00;;
37831;SDS011;23671;38.090;-122.570;2023-03-16T04:54:55;4.95;;;1.30;;
37831;SDS011;23671;38.090;-122.570;2023-03-16T04:57:22;4.80;;;1.23;;
37831;SDS011;23671;38.090;-122.570;2023-03-16T04:59:49;6.25;;;1.40;;
37831;SDS011;23671;38.090;-122.570;2023-03-16T05:02:16;3.00;;;1.20;;
37831;SDS011;23671;38.090;-122.570;2023-03-16T05:04:44;4.85;;;1.30;;
37831;SDS011;23671;38.090;-122.570;2023-03-16T05:07:11;3.08;;;1.35;;
37831;SDS011;23671;38.090;-122.570;2023-03-16T05:09:38;3.05;;;1.08;;
37831;SDS011;23671;38.090;-122.570;2023-03-16T05:12:06;3.20;;;1.20;;
37831;SDS011;23671;38.090;-122.570;2023-03-16T05:14:33;3.63;;;1.42;;
37831;SDS011;23671;38.090;-122.570;2023-03-16T05:17:00;5.22;;;1.42;;
37831;SDS011;23671;38.090;-122.570;2023-03-16T05:19:28;4.30;;;1.20;;
37831;SDS011;23671;38.090;-122.570;2023-03-16T05:21:55;3.78;;;1.65;;
37831;SDS011;23671;38.090;-122.570;2023-03-16T05:24:22;2.00;;;1.10;;
37831;SDS011;23671;38.090;-122.570;2023-03-16T05:26:49;1.83;;;1.00;;
37831;SDS011;23671;38.090;-122.570;2023-03-16T05:29:16;3.20;;;1.23;;
37831;SDS011;23671;38.090;-122.570;2023-03-16T05:31:43;3.05;;;1.25;;
37831;SDS011;23671;38.090;-122.570;2023-03-16T05:34:13;3.35;;;1.00;;
37831;SDS011;23671;38.090;-122.570;2023-03-16T05:36:40;3.00;;;1.10;;
37831;SDS011;23671;38.090;-122.570;2023-03-16T05:39:09;4.60;;;1.23;;
37831;SDS011;23671;38.090;-122.570;2023-03-16T05:41:37;3.75;;;1.30;;
37831;SDS011;23671;38.090;-122.570;2023-03-16T05:44:04;4.22;;;1.33;;
37831;SDS011;23671;38.090;-122.570;2023-03-16T05:46:32;4.53;;;1.15;;
37831;SDS011;23671;38.090;-122.570;2023-03-16T05:48:59;3.20;;;1.30;;
37831;SDS011;23671;38.090;-122.570;2023-03-16T05:51:27;3.00;;;1.17;;
37831;SDS011;23671;38.090;-122.570;2023-03-16T05:53:54;2.20;;;1.20;;
37831;SDS011;23671;38.090;-122.570;2023-03-16T05:56:24;3.00;;;1.15;;
37831;SDS011;23671;38.090;-122.570;2023-03-16T05:58:53;1.80;;;0.80;;
37831;SDS011;23671;38.090;-122.570;2023-03-16T06:01:21;4.95;;;1.25;;
37831;SDS011;23671;38.090;-122.570;2023-03-16T06:03:48;4.13;;;1.10;;
37831;SDS011;23671;38.090;-122.570;2023-03-16T06:06:19;2.65;;;1.10;;
37831;SDS011;23671;38.090;-122.570;2023-03-16T06:08:47;3.60;;;1.10;;
37831;SDS011;23671;38.090;-122.570;2023-03-16T06:11:14;3.58;;;1.35;;
37831;SDS011;23671;38.090;-122.570;2023-03-16T06:13:41;2.35;;;1.15;;
37831;SDS011;23671;38.090;-122.570;2023-03-16T06:16:08;1.52;;;1.13;;
37831;SDS011;23671;38.090;-122.570;2023-03-16T06:18:38;4.70;;;1.38;;
37831;SDS011;23671;38.090;-122.570;2023-03-16T06:21:06;2.72;;;0.93;;
37831;SDS011;23671;38.090;-122.570;2023-03-16T06:23:33;2.92;;;1.25;;
37831;SDS011;23671;38.090;-122.570;2023-03-16T06:26:00;2.10;;;0.98;;
37831;SDS011;23671;38.090;-122.570;2023-03-16T06:28:27;3.67;;;1.23;;
37831;SDS011;23671;38.090;-122.570;2023-03-16T06:30:55;2.65;;;1.02;;
37831;SDS011;23671;38.090;-122.570;2023-03-16T06:33:23;3.40;;;0.93;;
37831;SDS011;23671;38.090;-122.570;2023-03-16T06:35:50;1.63;;;0.80;;
37831;SDS011;23671;38.090;-122.570;2023-03-16T06:38:17;2.58;;;0.90;;
37831;SDS011;23671;38.090;-122.570;2023-03-16T06:40:45;0.88;;;0.80;;
37831;SDS011;23671;38.090;-122.570;2023-03-16T06:43:16;2.03;;;1.00;;
37831;SDS011;23671;38.090;-122.570;2023-03-16T06:45:43;2.65;;;1.10;;
37831;SDS011;23671;38.090;-122.570;2023-03-16T06:48:10;2.25;;;0.93;;
37831;SDS011;23671;38.090;-122.570;2023-03-16T06:50:37;2.60;;;1.20;;
37831;SDS011;23671;38.090;-122.570;2023-03-16T06:53:04;1.88;;;1.15;;
37831;SDS011;23671;38.090;-122.570;2023-03-16T06:55:31;2.65;;;1.13;;
37831;SDS011;23671;38.090;-122.570;2023-03-16T06:57:58;1.30;;;1.00;;
37831;SDS011;23671;38.090;-122.570;2023-03-16T07:00:25;3.78;;;1.15;;
37831;SDS011;23671;38.090;-122.570;2023-03-16T07:02:52;2.83;;;0.90;;
37831;SDS011;23671;38.090;-122.570;2023-03-16T07:05:19;3.38;;;0.70;;
37831;SDS011;23671;38.090;-122.570;2023-03-16T07:07:46;3.80;;;1.30;;
37831;SDS011;23671;38.090;-122.570;2023-03-16T07:10:15;1.23;;;0.70;;
37831;SDS011;23671;38.090;-122.570;2023-03-16T07:12:43;1.98;;;1.30;;
37831;SDS011;23671;38.090;-122.570;2023-03-16T07:15:11;2.58;;;0.90;;
37831;SDS011;23671;38.090;-122.570;2023-03-16T07:17:39;3.35;;;0.90;;
37831;SDS011;23671;38.090;-122.570;2023-03-16T07:20:07;1.25;;;0.68;;
37831;SDS011;23671;38.090;-122.570;2023-03-16T07:22:36;2.03;;;0.80;;
37831;SDS011;23671;38.090;-122.570;2023-03-16T07:25:04;1.45;;;0.93;;
37831;SDS011;23671;38.090;-122.570;2023-03-16T07:27:32;2.05;;;1.50;;
37831;SDS011;23671;38.090;-122.570;2023-03-16T07:29:59;0.85;;;0.60;;
37831;SDS011;23671;38.090;-122.570;2023-03-16T07:32:26;3.13;;;0.90;;
37831;SDS011;23671;38.090;-122.570;2023-03-16T07:34:53;3.10;;;0.98;;
37831;SDS011;23671;38.090;-122.570;2023-03-16T07:37:20;2.05;;;0.82;;
37831;SDS011;23671;38.090;-122.570;2023-03-16T07:39:47;0.90;;;0.63;;
37831;SDS011;23671;38.090;-122.570;2023-03-16T07:42:14;2.47;;;0.98;;
37831;SDS011;23671;38.090;-122.570;2023-03-16T07:44:41;2.97;;;1.00;;
37831;SDS011;23671;38.090;-122.570;2023-03-16T07:47:10;2.55;;;1.00;;
37831;SDS011;23671;38.090;-122.570;2023-03-16T07:49:37;0.70;;;0.60;;
37831;SDS011;23671;38.090;-122.570;2023-03-16T07:52:06;1.10;;;0.60;;
37831;SDS011;23671;38.090;-122.570;2023-03-16T07:54:33;2.58;;;0.90;;
37831;SDS011;23671;38.090;-122.570;2023-03-16T07:57:00;1.63;;;0.70;;
37831;SDS011;23671;38.090;-122.570;2023-03-16T07:59:27;1.40;;;0.70;;
37831;SDS011;23671;38.090;-122.570;2023-03-16T08:01:54;4.78;;;0.70;;
37831;SDS011;23671;38.090;-122.570;2023-03-16T08:04:21;1.83;;;0.70;;
37831;SDS011;23671;38.090;-122.570;2023-03-16T08:06:48;1.52;;;0.60;;
37831;SDS011;23671;38.090;-122.570;2023-03-16T08:09:17;1.75;;;1.00;;
37831;SDS011;23671;38.090;-122.570;2023-03-16T08:11:45;1.80;;;0.80;;
37831;SDS011;23671;38.090;-122.570;2023-03-16T08:14:12;1.85;;;0.73;;
37831;SDS011;23671;38.090;-122.570;2023-03-16T08:16:39;0.70;;;0.52;;
37831;SDS011;23671;38.090;-122.570;2023-03-16T08:19:06;0.98;;;0.60;;
37831;SDS011;23671;38.090;-122.570;2023-03-16T08:21:33;2.67;;;0.70;;
37831;SDS011;23671;38.090;-122.570;2023-03-16T08:24:00;0.60;;;0.60;;
37831;SDS011;23671;38.090;-122.570;2023-03-16T08:26:27;3.70;;;0.80;;
37831;SDS011;23671;38.090;-122.570;2023-03-16T08:28:54;0.90;;;0.60;;
37831;SDS011;23671;38.090;-122.570;2023-03-16T08:31:22;1.15;;;0.70;;
37831;SDS011;23671;38.090;-122.570;2023-03-16T08:33:49;1.40;;;0.82;;
37831;SDS011;23671;38.090;-122.570;2023-03-16T08:36:17;1.00;;;0.70;;
37831;SDS011;23671;38.090;-122.570;2023-03-16T08:38:45;2.05;;;0.70;;
37831;SDS011;23671;38.090;-122.570;2023-03-16T08:41:12;0.70;;;0.68;;
37831;SDS011;23671;38.090;-122.570;2023-03-16T08:43:41;0.60;;;0.50;;
37831;SDS011;23671;38.090;-122.570;2023-03-16T08:46:09;1.23;;;0.55;;
37831;SDS011;23671;38.090;-122.570;2023-03-16T08:48:38;1.10;;;0.50;;
37831;SDS011;23671;38.090;-122.570;2023-03-16T08:51:06;1.20;;;0.43;;
37831;SDS011;23671;38.090;-122.570;2023-03-16T08:53:35;1.60;;;0.68;;
37831;SDS011;23671;38.090;-122.570;2023-03-16T08:56:04;1.85;;;0.70;;
37831;SDS011;23671;38.090;-122.570;2023-03-16T08:58:33;1.50;;;0.60;;
37831;SDS011;23671;38.090;-122.570;2023-03-16T09:01:01;1.40;;;0.55;;
37831;SDS011;23671;38.090;-122.570;2023-03-16T09:03:30;1.55;;;0.40;;
37831;SDS011;23671;38.090;-122.570;2023-03-16T09:05:59;0.60;;;0.60;;
37831;SDS011;23671;38.090;-122.570;2023-03-16T09:08:27;1.07;;;0.80;;
37831;SDS011;23671;38.090;-122.570;2023-03-16T09:11:14;1.77;;;0.75;;
37831;SDS011;23671;38.090;-122.570;2023-03-16T09:13:43;0.90;;;0.45;;
37831;SDS011;23671;38.090;-122.570;2023-03-16T09:16:11;1.58;;;0.77;;
37831;SDS011;23671;38.090;-122.570;2023-03-16T09:18:40;2.90;;;0.82;;
37831;SDS011;23671;38.090;-122.570;2023-03-16T09:21:08;3.22;;;0.50;;
37831;SDS011;23671;38.090;-122.570;2023-03-16T09:23:38;2.60;;;0.50;;
37831;SDS011;23671;38.090;-122.570;2023-03-16T09:26:07;1.77;;;0.60;;
37831;SDS011;23671;38.090;-122.570;2023-03-16T09:28:35;0.75;;;0.50;;
37831;SDS011;23671;38.090;-122.570;2023-03-16T09:31:05;1.80;;;0.60;;
37831;SDS011;23671;38.090;-122.570;2023-03-16T09:33:33;1.25;;;0.60;;
37831;SDS011;23671;38.090;-122.570;2023-03-16T09:36:01;1.13;;;0.52;;
37831;SDS011;23671;38.090;-122.570;2023-03-16T09:38:29;0.50;;;0.45;;
37831;SDS011;23671;38.090;-122.570;2023-03-16T09:41:05;1.20;;;0.50;;
37831;SDS011;23671;38.090;-122.570;2023-03-16T09:48:40;4.07;;;0.70;;
37831;SDS011;23671;38.090;-122.570;2023-03-16T09:53:54;1.73;;;0.55;;
37831;SDS011;23671;38.090;-122.570;2023-03-16T09:58:54;2.15;;;0.68;;
37831;SDS011;23671;38.090;-122.570;2023-03-16T10:01:36;1.83;;;0.70;;
37831;SDS011;23671;38.090;-122.570;2023-03-16T10:04:15;2.35;;;0.65;;
37831;SDS011;23671;38.090;-122.570;2023-03-16T10:09:58;1.25;;;0.65;;
37831;SDS011;23671;38.090;-122.570;2023-03-16T10:12:31;2.60;;;0.73;;
37831;SDS011;23671;38.090;-122.570;2023-03-16T10:17:41;1.15;;;0.70;;
37831;SDS011;23671;38.090;-122.570;2023-03-16T10:20:13;1.38;;;0.50;;
37831;SDS011;23671;38.090;-122.570;2023-03-16T10:22:43;0.70;;;0.70;;
37831;SDS011;23671;38.090;-122.570;2023-03-16T10:27:52;1.70;;;0.70;;
37831;SDS011;23671;38.090;-122.570;2023-03-16T10:30:28;0.90;;;0.55;;
37831;SDS011;23671;38.090;-122.570;2023-03-16T10:33:00;1.15;;;0.60;;
37831;SDS011;23671;38.090;-122.570;2023-03-16T10:36:17;2.13;;;0.68;;
37831;SDS011;23671;38.090;-122.570;2023-03-16T10:38:55;2.47;;;0.82;;
37831;SDS011;23671;38.090;-122.570;2023-03-16T10:41:28;3.60;;;0.95;;
37831;SDS011;23671;38.090;-122.570;2023-03-16T10:44:00;1.80;;;0.90;;
37831;SDS011;23671;38.090;-122.570;2023-03-16T10:46:47;2.17;;;0.80;;
37831;SDS011;23671;38.090;-122.570;2023-03-16T10:49:26;1.45;;;0.63;;
37831;SDS011;23671;38.090;-122.570;2023-03-16T10:52:13;4.70;;;0.95;;
37831;SDS011;23671;38.090;-122.570;2023-03-16T10:57:28;1.15;;;0.80;;
37831;SDS011;23671;38.090;-122.570;2023-03-16T11:00:15;1.75;;;0.68;;
37831;SDS011;23671;38.090;-122.570;2023-03-16T11:03:12;1.40;;;0.60;;
37831;SDS011;23671;38.090;-122.570;2023-03-16T11:06:00;2.63;;;0.60;;
37831;SDS011;23671;38.090;-122.570;2023-03-16T11:08:33;1.95;;;0.80;;
37831;SDS011;23671;38.090;-122.570;2023-03-16T11:13:43;2.83;;;0.70;;
37831;SDS011;23671;38.090;-122.570;2023-03-16T11:19:09;1.98;;;0.65;;
37831;SDS011;23671;38.090;-122.570;2023-03-16T11:24:23;1.67;;;0.70;;
37831;SDS011;23671;38.090;-122.570;2023-03-16T11:26:59;2.38;;;0.75;;
37831;SDS011;23671;38.090;-122.570;2023-03-16T11:29:51;0.55;;;0.52;;
37831;SDS011;23671;38.090;-122.570;2023-03-16T11:32:28;2.08;;;0.70;;
37831;SDS011;23671;38.090;-122.570;2023-03-16T11:35:00;1.50;;;0.70;;
37831;SDS011;23671;38.090;-122.570;2023-03-16T11:45:36;2.05;;;0.50;;
37831;SDS011;23671;38.090;-122.570;2023-03-16T11:48:50;2.28;;;0.60;;
37831;SDS011;23671;38.090;-122.570;2023-03-16T11:56:33;2.45;;;1.38;;
37831;SDS011;23671;38.090;-122.570;2023-03-16T11:59:09;3.53;;;0.60;;
37831;SDS011;23671;38.090;-122.570;2023-03-16T12:02:12;1.92;;;0.50;;
37831;SDS011;23671;38.090;-122.570;2023-03-16T12:10:44;1.55;;;0.65;;
37831;SDS011;23671;38.090;-122.570;2023-03-16T12:13:31;1.48;;;0.57;;
37831;SDS011;23671;38.090;-122.570;2023-03-16T12:19:04;3.25;;;0.65;;
37831;SDS011;23671;38.090;-122.570;2023-03-16T12:21:42;1.58;;;0.90;;
37831;SDS011;23671;38.090;-122.570;2023-03-16T12:24:15;1.08;;;0.70;;
37831;SDS011;23671;38.090;-122.570;2023-03-16T12:26:51;1.58;;;0.40;;
37831;SDS011;23671;38.090;-122.570;2023-03-16T12:29:31;1.17;;;0.50;;
37831;SDS011;23671;38.090;-122.570;2023-03-16T12:32:12;0.85;;;0.52;;
37831;SDS011;23671;38.090;-122.570;2023-03-16T12:34:51;5.25;;;0.63;;
37831;SDS011;23671;38.090;-122.570;2023-03-16T12:49:00;2.83;;;0.70;;
37831;SDS011;23671;38.090;-122.570;2023-03-16T12:51:33;1.55;;;0.40;;
37831;SDS011;23671;38.090;-122.570;2023-03-16T12:54:16;1.35;;;0.70;;
37831;SDS011;23671;38.090;-122.570;2023-03-16T12:56:46;0.95;;;0.77;;
37831;SDS011;23671;38.090;-122.570;2023-03-16T12:59:15;1.95;;;0.50;;
37831;SDS011;23671;38.090;-122.570;2023-03-16T13:01:47;3.83;;;0.70;;
37831;SDS011;23671;38.090;-122.570;2023-03-16T13:04:28;3.70;;;1.70;;
37831;SDS011;23671;38.090;-122.570;2023-03-16T13:07:05;1.05;;;0.60;;
37831;SDS011;23671;38.090;-122.570;2023-03-16T13:09:45;1.80;;;0.57;;
37831;SDS011;23671;38.090;-122.570;2023-03-16T13:12:29;1.55;;;0.40;;
37831;SDS011;23671;38.090;-122.570;2023-03-16T13:15:01;1.20;;;0.60;;
37831;SDS011;23671;38.090;-122.570;2023-03-16T13:18:01;0.68;;;0.50;;
37831;SDS011;23671;38.090;-122.570;2023-03-16T13:20:32;1.20;;;0.60;;
37831;SDS011;23671;38.090;-122.570;2023-03-16T13:26:00;1.63;;;0.70;;
37831;SDS011;23671;38.090;-122.570;2023-03-16T13:28:34;2.10;;;0.73;;
37831;SDS011;23671;38.090;-122.570;2023-03-16T13:31:24;1.10;;;0.70;;
37831;SDS011;23671;38.090;-122.570;2023-03-16T13:33:58;1.23;;;0.60;;
37831;SDS011;23671;38.090;-122.570;2023-03-16T13:36:27;2.05;;;0.50;;
37831;SDS011;23671;38.090;-122.570;2023-03-16T13:39:12;1.20;;;0.60;;
37831;SDS011;23671;38.090;-122.570;2023-03-16T13:41:53;2.08;;;0.70;;
37831;SDS011;23671;38.090;-122.570;2023-03-16T13:44:22;1.98;;;0.50;;
37831;SDS011;23671;38.090;-122.570;2023-03-16T13:46:49;3.08;;;0.68;;
37831;SDS011;23671;38.090;-122.570;2023-03-16T13:49:17;0.98;;;0.63;;
37831;SDS011;23671;38.090;-122.570;2023-03-16T13:51:44;1.67;;;0.60;;
37831;SDS011;23671;38.090;-122.570;2023-03-16T13:57:00;2.30;;;0.68;;
37831;SDS011;23671;38.090;-122.570;2023-03-16T13:59:31;2.00;;;0.57;;
37831;SDS011;23671;38.090;-122.570;2023-03-16T14:01:58;0.95;;;0.50;;
37831;SDS011;23671;38.090;-122.570;2023-03-16T14:04:27;2.28;;;0.80;;
37831;SDS011;23671;38.090;-122.570;2023-03-16T14:09:27;1.05;;;0.55;;
37831;SDS011;23671;38.090;-122.570;2023-03-16T14:11:59;1.77;;;0.70;;
37831;SDS011;23671;38.090;-122.570;2023-03-16T14:14:28;2.17;;;0.88;;
37831;SDS011;23671;38.090;-122.570;2023-03-16T14:17:09;1.55;;;0.60;;
37831;SDS011;23671;38.090;-122.570;2023-03-16T14:19:47;2.10;;;0.63;;
37831;SDS011;23671;38.090;-122.570;2023-03-16T14:22:18;1.75;;;0.70;;
37831;SDS011;23671;38.090;-122.570;2023-03-16T14:24:53;1.30;;;0.73;;
37831;SDS011;23671;38.090;-122.570;2023-03-16T14:32:57;0.53;;;0.50;;
37831;SDS011;23671;38.090;-122.570;2023-03-16T14:35:37;0.82;;;0.70;;
37831;SDS011;23671;38.090;-122.570;2023-03-16T14:40:57;2.22;;;0.80;;
37831;SDS011;23671;38.090;-122.570;2023-03-16T14:43:30;1.23;;;0.60;;
37831;SDS011;23671;38.090;-122.570;2023-03-16T14:46:00;1.55;;;0.85;;
37831;SDS011;23671;38.090;-122.570;2023-03-16T14:48:30;2.30;;;0.65;;
37831;SDS011;23671;38.090;-122.570;2023-03-16T14:51:00;0.95;;;0.55;;
37831;SDS011;23671;38.090;-122.570;2023-03-16T14:53:28;1.58;;;0.47;;
37831;SDS011;23671;38.090;-122.570;2023-03-16T14:55:56;1.55;;;0.70;;
37831;SDS011;23671;38.090;-122.570;2023-03-16T14:58:24;3.42;;;0.60;;
37831;SDS011;23671;38.090;-122.570;2023-03-16T15:00:52;0.45;;;0.45;;
37831;SDS011;23671;38.090;-122.570;2023-03-16T15:03:20;3.80;;;0.60;;
37831;SDS011;23671;38.090;-122.570;2023-03-16T15:05:54;3.13;;;0.65;;
37831;SDS011;23671;38.090;-122.570;2023-03-16T15:08:21;0.70;;;0.70;;
37831;SDS011;23671;38.090;-122.570;2023-03-16T15:10:56;1.38;;;0.40;;
37831;SDS011;23671;38.090;-122.570;2023-03-16T15:13:26;1.05;;;0.75;;
37831;SDS011;23671;38.090;-122.570;2023-03-16T15:16:17;1.23;;;0.70;;
37831;SDS011;23671;38.090;-122.570;2023-03-16T15:18:46;2.13;;;0.90;;
37831;SDS011;23671;38.090;-122.570;2023-03-16T15:21:14;3.85;;;0.70;;
37831;SDS011;23671;38.090;-122.570;2023-03-16T15:23:53;2.35;;;0.75;;
37831;SDS011;23671;38.090;-122.570;2023-03-16T15:26:23;0.73;;;0.60;;
37831;SDS011;23671;38.090;-122.570;2023-03-16T15:28:53;2.67;;;0.77;;
37831;SDS011;23671;38.090;-122.570;2023-03-16T15:31:20;1.38;;;0.60;;
37831;SDS011;23671;38.090;-122.570;2023-03-16T15:33:47;1.25;;;0.70;;
37831;SDS011;23671;38.090;-122.570;2023-03-16T15:36:16;0.85;;;0.65;;
37831;SDS011;23671;38.090;-122.570;2023-03-16T15:38:46;1.27;;;0.60;;
37831;SDS011;23671;38.090;-122.570;2023-03-16T15:41:14;1.55;;;0.70;;
37831;SDS011;23671;38.090;-122.570;2023-03-16T15:43:42;1.38;;;0.60;;
37831;SDS011;23671;38.090;-122.570;2023-03-16T15:46:12;1.48;;;0.82;;
37831;SDS011;23671;38.090;-122.570;2023-03-16T15:48:40;3.03;;;0.90;;
37831;SDS011;23671;38.090;-122.570;2023-03-16T15:51:41;1.02;;;0.60;;
37831;SDS011;23671;38.090;-122.570;2023-03-16T15:54:02;2.38;;;0.73;;
37831;SDS011;23671;38.090;-122.570;2023-03-16T15:56:32;0.88;;;0.52;;
37831;SDS011;23671;38.090;-122.570;2023-03-16T15:59:03;2.28;;;0.93;;
37831;SDS011;23671;38.090;-122.570;2023-03-16T16:01:45;2.65;;;0.80;;
37831;SDS011;23671;38.090;-122.570;2023-03-16T16:04:13;3.08;;;0.70;;